Time;durP1;ratioP1;P1;durP2;ratioP2;P2;SDS_P1;SDS_P2;PMS_P1;PMS_P2;Temp;Humidity;BMP_temperature;BMP_pressure;BME280_temperature;BME280_humidity;BME280_pressure;Samples;Min_cycle;Max_cycle;Signal;HPM_P1;HPM_P2
2022/01/23 00:00:15;;;;;;;12.38;7.07;;;;;;;3.92;87.04;102262.53;8116510;35;20264;-75
2022/01/23 00:05:21;;;;;;;13.88;7.35;;;;;;;3.81;87.04;102233.53;8116852;35;20312;-75
2022/01/23 00:10:24;;;;;;;14.25;7.95;;;;;;;3.85;87.43;102239.69;8135486;35;20194;-75
2022/01/23 00:20:50;;;;;;;18.35;9.55;;;;;;;3.76;87.51;102247.84;8116652;35;20304;-75
2022/01/23 00:31:14;;;;;;;17.98;10.63;;;;;;;3.87;87.85;102236.09;8116355;35;20256;-75
2022/01/23 00:36:20;;;;;;;19.00;10.23;;;;;;;3.80;88.28;102229.16;8135667;35;20244;-75
2022/01/23 00:41:23;;;;;;;19.60;11.93;;;;;;;3.79;88.67;102222.09;8114470;35;20601;-75
2022/01/23 00:46:33;;;;;;;20.52;11.48;;;;;;;3.84;88.65;102225.53;8115965;35;20137;-75
2022/01/23 00:51:40;;;;;;;26.13;12.68;;;;;;;3.80;88.75;102222.97;8115859;35;20761;-75
2022/01/23 00:56:44;;;;;;;23.40;12.13;;;;;;;3.77;88.97;102223.91;8120110;35;20272;-75
2022/01/23 01:01:47;;;;;;;22.55;12.38;;;;;;;3.64;89.19;102227.75;8122664;35;20957;-75
2022/01/23 01:06:52;;;;;;;21.52;12.25;;;;;;;3.66;89.56;102233.91;8119126;35;20160;-75
2022/01/23 01:11:59;;;;;;;24.37;12.93;;;;;;;3.85;88.76;102234.38;8120445;35;20236;-75
2022/01/23 01:17:11;;;;;;;22.77;12.57;;;;;;;3.52;89.23;102236.00;8119731;35;20235;-75
2022/01/23 01:33:16;;;;;;;24.42;11.88;;;;;;;3.76;88.95;102213.28;8118633;35;20180;-75
2022/01/23 01:38:22;;;;;;;21.52;11.63;;;;;;;3.55;88.75;102231.50;8139127;35;20195;-75
2022/01/23 01:43:25;;;;;;;22.55;11.85;;;;;;;3.88;88.62;102234.28;8138616;35;20192;-75
2022/01/23 01:48:28;;;;;;;20.88;10.95;;;;;;;3.93;88.45;102233.28;8117802;35;20192;-75
2022/01/23 01:53:42;;;;;;;22.08;10.75;;;;;;;3.84;88.74;102233.50;8138558;35;20282;-75
2022/01/23 02:09:57;;;;;;;23.88;11.38;;;;;;;3.81;88.35;102233.53;8117232;35;20179;-75
2022/01/23 02:15:27;;;;;;;19.23;10.10;;;;;;;3.83;88.27;102233.53;8118221;35;20180;-75
2022/01/23 02:53:12;;;;;;;21.25;12.05;;;;;;;3.84;88.84;102251.22;8116879;35;20200;-75
2022/01/23 02:58:15;;;;;;;22.88;11.38;;;;;;;3.82;88.69;102255.72;8136714;35;20238;-75
2022/01/23 03:03:23;;;;;;;21.08;11.02;;;;;;;3.82;88.45;102269.00;8117134;35;20883;-75
2022/01/23 03:09:06;;;;;;;21.52;11.63;;;;;;;3.87;88.84;102278.63;8117314;35;20191;-75
2022/01/23 03:14:18;;;;;;;24.23;11.48;;;;;;;3.74;88.60;102274.50;8117192;35;20199;-75
2022/01/23 03:25:01;;;;;;;27.45;12.45;;;;;;;3.81;88.10;102261.91;8116183;35;20175;-75
2022/01/23 03:30:17;;;;;;;22.33;11.70;;;;;;;3.76;88.07;102267.38;8136505;35;20282;-75
2022/01/23 03:35:22;;;;;;;20.13;11.52;;;;;;;3.71;88.27;102272.78;8117602;35;20235;-75
2022/01/23 03:40:26;;;;;;;28.02;12.93;;;;;;;3.76;88.50;102271.78;8115735;35;20605;-75
2022/01/23 03:45:55;;;;;;;22.65;11.38;;;;;;;3.82;88.55;102266.34;8115808;35;20207;-75
2022/01/23 03:50:59;;;;;;;21.25;11.02;;;;;;;3.75;88.13;102273.56;8115955;35;20248;-75
2022/01/23 03:56:30;;;;;;;25.45;11.35;;;;;;;3.66;88.15;102268.47;8114137;35;20593;-75
2022/01/23 04:01:34;;;;;;;20.65;11.15;;;;;;;3.61;88.24;102267.69;8115033;35;20342;-75
2022/01/23 04:06:38;;;;;;;19.20;10.88;;;;;;;3.69;88.58;102271.91;8116045;35;20169;-75
2022/01/23 04:11:43;;;;;;;20.67;12.60;;;;;;;3.79;88.58;102264.63;8116454;35;20489;-75
2022/01/23 04:17:10;;;;;;;21.67;11.07;;;;;;;3.79;88.35;102267.28;8136587;35;20191;-75
2022/01/23 04:33:27;;;;;;;19.52;11.15;;;;;;;3.45;88.53;102260.03;8089282;35;20168;-75
2022/01/23 05:00:08;;;;;;;20.63;10.20;;;;;;;3.53;87.78;102283.78;8118965;35;20196;-74
2022/01/23 05:05:11;;;;;;;17.63;9.38;;;;;;;3.65;87.33;102280.03;8119964;35;20477;-75
2022/01/23 05:10:26;;;;;;;20.70;10.52;;;;;;;3.60;87.06;102280.09;8118679;35;20192;-75
2022/01/23 05:15:51;;;;;;;17.00;9.95;;;;;;;3.61;86.98;102279.19;8111290;35;20454;-75
2022/01/23 05:21:04;;;;;;;19.63;9.38;;;;;;;3.48;86.93;102288.34;8118590;35;20189;-75
2022/01/23 05:26:07;;;;;;;17.58;9.18;;;;;;;3.42;87.02;102289.34;8119016;35;20153;-74
2022/01/23 05:31:12;;;;;;;20.25;9.60;;;;;;;3.40;87.18;102287.63;8120633;35;20169;-75
2022/01/23 05:36:15;;;;;;;17.02;9.25;;;;;;;3.30;87.06;102297.56;8125715;35;20196;-74
2022/01/23 05:41:20;;;;;;;17.10;8.75;;;;;;;3.32;86.97;102290.47;8145949;35;20153;-75
2022/01/23 05:46:24;;;;;;;16.63;9.48;;;;;;;3.27;87.38;102290.53;8118560;35;20495;-75
2022/01/23 05:51:34;;;;;;;17.95;9.52;;;;;;;3.12;87.54;102306.75;8117725;35;20208;-74
2022/01/23 05:56:55;;;;;;;17.92;8.32;;;;;;;3.06;87.83;102307.75;8119139;35;20606;-75
2022/01/23 06:02:18;;;;;;;15.75;8.05;;;;;;;3.12;87.82;102313.88;8118846;35;20184;-75
2022/01/23 06:07:21;;;;;;;17.15;8.20;;;;;;;3.03;87.89;102320.22;8117817;35;20152;-75
2022/01/23 06:12:33;;;;;;;18.75;9.20;;;;;;;3.26;87.42;102319.78;8117152;35;20207;-75
2022/01/23 06:17:38;;;;;;;18.42;9.80;;;;;;;3.36;87.00;102329.31;8137969;35;21619;-74
2022/01/23 06:23:00;;;;;;;16.30;8.50;;;;;;;3.40;87.15;102333.69;8118327;35;20231;-75
2022/01/23 06:28:19;;;;;;;19.98;8.65;;;;;;;3.58;87.57;102343.03;8118288;35;20251;-75
2022/01/23 06:33:23;;;;;;;23.38;9.57;;;;;;;3.67;87.60;102339.31;8119082;35;20612;-75
2022/01/23 06:38:27;;;;;;;17.45;8.73;;;;;;;3.69;87.62;102335.72;8141358;35;20188;-75
2022/01/23 06:43:30;;;;;;;18.25;8.98;;;;;;;3.68;87.62;102335.78;8142301;35;20192;-75
2022/01/23 06:48:40;;;;;;;19.67;8.82;;;;;;;3.56;87.10;102336.00;8117523;35;20195;-75
2022/01/23 06:53:43;;;;;;;18.27;9.63;;;;;;;3.44;87.05;102334.50;8115655;35;20156;-75
2022/01/23 06:58:47;;;;;;;16.75;9.75;;;;;;;3.40;87.55;102336.34;8115784;35;20490;-75
2022/01/23 07:03:51;;;;;;;19.38;8.55;;;;;;;3.39;87.70;102347.84;8115737;35;20585;-75
2022/01/23 07:09:08;;;;;;;17.02;8.52;;;;;;;3.42;87.67;102347.78;8115588;35;20297;-75
2022/01/23 07:14:24;;;;;;;14.80;8.43;;;;;;;3.43;87.71;102354.88;8136238;35;20931;-75
2022/01/23 07:19:50;;;;;;;15.50;7.63;;;;;;;3.40;88.02;102354.03;8111521;35;20724;-75
2022/01/23 07:25:04;;;;;;;16.42;7.95;;;;;;;3.39;87.95;102358.47;8135799;35;20145;-75
2022/01/23 07:30:20;;;;;;;17.67;8.35;;;;;;;3.41;88.07;102371.75;8114833;35;20223;-75
2022/01/23 07:35:26;;;;;;;18.05;9.27;;;;;;;3.46;88.35;102375.19;8116434;35;20477;-75
2022/01/23 07:40:29;;;;;;;21.25;10.18;;;;;;;3.57;88.54;102369.69;8115574;35;20710;-75
2022/01/23 07:45:32;;;;;;;24.15;9.10;;;;;;;3.72;89.08;102374.66;8115003;35;20492;-75
2022/01/23 07:50:56;;;;;;;27.92;13.20;;;;;;;4.01;89.14;102383.81;8134789;35;20200;-75
2022/01/23 07:56:10;;;;;;;19.42;9.55;;;;;;;4.04;88.13;102389.94;8135170;35;20940;-75
2022/01/23 08:01:43;;;;;;;16.83;8.30;;;;;;;4.21;88.30;102386.91;8135390;35;20188;-75
2022/01/23 08:07:30;;;;;;;17.90;9.98;;;;;;;4.21;87.37;102402.00;8119097;35;20511;-75
2022/01/23 08:12:48;;;;;;;12.88;7.68;;;;;;;4.17;87.62;102401.19;8140054;35;20994;-75
2022/01/23 08:17:51;;;;;;;14.35;7.55;;;;;;;4.32;88.36;102390.19;8120768;35;20207;-75
2022/01/23 08:22:58;;;;;;;14.85;7.40;;;;;;;4.43;88.37;102400.59;8120019;35;20199;-75
2022/01/23 08:28:01;;;;;;;11.30;6.13;;;;;;;4.47;87.80;102412.03;8123205;35;21835;-75
2022/01/23 08:33:05;;;;;;;14.35;7.32;;;;;;;4.46;86.94;102419.13;8170269;35;20164;-75
2022/01/23 08:38:09;;;;;;;15.05;8.60;;;;;;;4.35;87.02;102432.69;8169584;35;20191;-75
2022/01/23 08:43:15;;;;;;;15.02;7.32;;;;;;;4.31;86.83;102432.81;8171088;35;20148;-75
2022/01/23 08:48:18;;;;;;;14.63;8.20;;;;;;;4.47;87.39;102439.53;8170912;35;20247;-75
2022/01/23 08:53:23;;;;;;;14.00;7.85;;;;;;;4.59;86.66;102435.72;8173944;35;20161;-75
2022/01/23 08:58:26;;;;;;;20.58;9.18;;;;;;;4.28;85.02;102444.41;8173769;35;20720;-74
2022/01/23 09:03:33;;;;;;;20.52;9.70;;;;;;;4.25;84.89;102454.22;8171390;35;20825;-75
2022/01/23 09:08:38;;;;;;;17.40;9.23;;;;;;;4.47;85.02;102439.53;8189588;35;20227;-75
2022/01/23 09:13:53;;;;;;;17.23;9.38;;;;;;;4.44;83.85;102444.03;8170555;35;20180;-75
2022/01/23 09:18:56;;;;;;;18.13;9.25;;;;;;;4.47;83.96;102449.28;8170075;35;20346;-75
2022/01/23 09:24:02;;;;;;;18.42;9.13;;;;;;;4.48;83.73;102440.41;8169940;35;20196;-75
2022/01/23 09:29:13;;;;;;;21.02;9.90;;;;;;;4.36;83.44;102447.75;8169221;35;21965;-75
2022/01/23 09:34:17;;;;;;;18.92;9.30;;;;;;;4.28;83.23;102447.06;8169434;35;20282;-74
2022/01/23 09:39:22;;;;;;;19.52;10.30;;;;;;;4.45;82.88;102456.44;8169926;35;21073;-75
2022/01/23 09:44:41;;;;;;;17.45;9.05;;;;;;;4.73;82.28;102446.91;8170256;35;20662;-75
2022/01/23 09:49:45;;;;;;;16.50;9.52;;;;;;;4.72;80.77;102446.97;8169167;35;20187;-75
2022/01/23 09:54:57;;;;;;;17.92;10.10;;;;;;;4.71;80.65;102451.38;8169339;35;20269;-75
2022/01/23 10:00:02;;;;;;;21.92;10.18;;;;;;;4.93;80.48;102459.72;8167064;35;20187;-76
2022/01/23 10:05:07;;;;;;;20.60;9.73;;;;;;;5.00;80.21;102466.72;8168203;35;20195;-74
2022/01/23 10:10:20;;;;;;;17.15;8.50;;;;;;;5.25;80.12;102466.97;8169118;35;20302;-75
2022/01/23 10:15:25;;;;;;;18.20;9.32;;;;;;;5.35;79.64;102464.94;8169104;35;20215;-76
2022/01/23 10:20:29;;;;;;;15.05;9.07;;;;;;;5.28;78.86;102466.00;8168357;35;20219;-75
2022/01/23 10:25:36;;;;;;;14.98;8.10;;;;;;;5.30;79.39;102463.31;8167773;35;20169;-74
2022/01/23 10:30:44;;;;;;;15.95;8.05;;;;;;;5.49;79.51;102461.91;8168242;35;20152;-76
2022/01/23 10:36:01;;;;;;;15.38;8.27;;;;;;;5.93;80.26;102455.34;8168385;35;20261;-76
2022/01/23 10:41:31;;;;;;;15.65;7.45;;;;;;;5.87;77.63;102460.88;8164191;35;20311;-76
2022/01/23 10:47:01;;;;;;;12.38;6.38;;;;;;;5.97;77.96;102456.13;8167811;35;20275;-75
2022/01/23 10:52:04;;;;;;;11.10;6.15;;;;;;;5.81;77.34;102453.00;8170381;35;20218;-75
2022/01/23 10:57:09;;;;;;;10.38;6.00;;;;;;;5.87;75.76;102441.28;8168670;35;20172;-75
2022/01/23 11:02:14;;;;;;;7.80;5.13;;;;;;;5.76;76.66;102444.28;8167732;35;20346;-75
2022/01/23 11:07:18;;;;;;;7.43;4.97;;;;;;;6.46;75.14;102435.09;8168819;35;20194;-75
2022/01/23 11:12:43;;;;;;;8.93;5.00;;;;;;;6.58;74.34;102437.38;8168783;35;20517;-75
2022/01/23 11:17:51;;;;;;;7.45;4.60;;;;;;;6.22;75.12;102439.38;8169887;35;20224;-75
2022/01/23 11:23:04;;;;;;;7.65;5.10;;;;;;;6.22;74.53;102431.38;8168974;35;20160;-76
2022/01/23 11:28:08;;;;;;;5.32;3.55;;;;;;;6.20;73.80;102436.78;8181897;35;20641;-76
2022/01/23 11:33:16;;;;;;;6.13;3.47;;;;;;;6.26;73.32;102433.91;8159156;35;20163;-76
2022/01/23 11:38:22;;;;;;;4.88;3.35;;;;;;;6.13;72.81;102429.88;8187128;35;20155;-75
2022/01/23 11:54:14;;;;;;;5.28;3.35;;;;;;;5.89;74.03;102429.66;8166989;35;20479;-75
2022/01/23 11:59:26;;;;;;;7.82;4.10;;;;;;;5.93;74.07;102434.00;8182899;35;20139;-75
2022/01/23 12:04:33;;;;;;;8.02;3.92;;;;;;;5.52;75.53;102432.50;8166671;35;20192;-75
2022/01/23 12:09:36;;;;;;;8.65;4.13;;;;;;;5.60;75.55;102434.97;8168258;35;20549;-75
2022/01/23 12:20:02;;;;;;;7.05;3.63;;;;;;;5.34;76.14;102430.31;8164213;35;20164;-75
2022/01/23 12:25:22;;;;;;;5.70;2.90;;;;;;;5.58;74.93;102431.47;8185655;35;20256;-75
2022/01/23 12:30:36;;;;;;;4.10;3.25;;;;;;;5.58;74.91;102426.13;8146621;35;21069;-75
2022/01/23 12:35:42;;;;;;;7.47;4.10;;;;;;;5.57;75.50;102422.59;8166925;35;21033;-75
2022/01/23 12:40:47;;;;;;;7.07;4.32;;;;;;;5.67;75.33;102415.19;8163474;35;20677;-75
2022/01/23 12:45:58;;;;;;;7.47;4.05;;;;;;;5.79;74.85;102409.53;8165672;35;20170;-75
2022/01/23 12:51:04;;;;;;;6.00;3.67;;;;;;;5.72;74.64;102411.47;8185259;35;20202;-75
2022/01/23 12:56:11;;;;;;;8.95;4.70;;;;;;;5.67;75.13;102405.41;8170630;35;20141;-74
2022/01/23 13:01:24;;;;;;;6.65;4.70;;;;;;;5.72;75.16;102415.94;8171339;35;20627;-75
2022/01/23 13:06:31;;;;;;;8.13;3.92;;;;;;;5.39;76.12;102415.09;8171190;35;20195;-74
2022/01/23 13:11:53;;;;;;;8.45;3.67;;;;;;;5.47;75.75;102421.09;8171612;35;20195;-75
2022/01/23 13:17:29;;;;;;;5.45;3.65;;;;;;;5.50;74.89;102416.53;8172720;35;20148;-75
2022/01/23 13:33:20;;;;;;;4.35;2.80;;;;;;;5.78;74.32;102414.88;8133851;35;20280;-74
2022/01/23 13:38:24;;;;;;;5.30;3.97;;;;;;;5.67;74.42;102416.06;8172138;35;20230;-76
2022/01/23 13:59:51;;;;;;;6.03;4.07;;;;;;;6.13;72.89;102404.06;8169849;35;20209;-75
2022/01/23 14:05:05;;;;;;;5.97;4.03;;;;;;;5.76;73.33;102400.72;8169497;35;20146;-75
2022/01/23 14:10:16;;;;;;;8.75;4.18;;;;;;;5.38;74.21;102400.91;8170803;35;20251;-75
2022/01/23 14:15:21;;;;;;;7.70;4.32;;;;;;;5.66;74.55;102397.47;8168929;35;20263;-75
2022/01/23 14:20:26;;;;;;;5.55;4.07;;;;;;;5.44;75.18;102406.06;8170929;35;20215;-75
2022/01/23 14:25:29;;;;;;;6.15;4.70;;;;;;;5.45;75.34;102399.78;8171141;35;20250;-75
2022/01/23 14:30:33;;;;;;;7.10;4.78;;;;;;;5.55;75.20;102395.09;8172245;35;20234;-75
2022/01/23 14:35:37;;;;;;;8.43;4.88;;;;;;;5.31;75.77;102406.44;8171365;35;20196;-74
2022/01/23 14:40:54;;;;;;;7.43;4.53;;;;;;;5.25;75.87;102402.13;8169842;35;20199;-74
2022/01/23 14:45:59;;;;;;;9.85;4.75;;;;;;;5.43;75.72;102396.31;8171378;35;20364;-74
2022/01/23 14:51:04;;;;;;;7.55;4.97;;;;;;;5.27;76.29;102405.66;8169565;35;20338;-74
2022/01/23 14:56:12;;;;;;;8.05;4.40;;;;;;;5.45;75.33;102399.78;8187927;35;20140;-74
2022/01/23 15:01:18;;;;;;;7.65;4.82;;;;;;;5.47;74.91;102400.63;8169237;35;20242;-75
2022/01/23 15:06:24;;;;;;;11.05;3.97;;;;;;;5.52;74.89;102396.97;8173056;35;20282;-75
2022/01/23 15:11:27;;;;;;;6.53;4.15;;;;;;;5.51;74.57;102401.41;8174458;35;20188;-75
2022/01/23 15:16:30;;;;;;;6.65;4.10;;;;;;;5.53;74.38;102401.38;8165889;35;20207;-75
2022/01/23 15:21:35;;;;;;;4.85;3.35;;;;;;;5.37;74.09;102411.59;8168709;35;20206;-76
2022/01/23 15:26:40;;;;;;;6.22;3.53;;;;;;;5.50;74.67;102413.00;8166203;35;20212;-75
2022/01/23 15:31:43;;;;;;;5.05;3.33;;;;;;;5.45;73.45;102414.91;8170370;35;20195;-75
2022/01/23 15:36:48;;;;;;;3.95;3.22;;;;;;;5.61;73.93;102410.03;8163712;35;20248;-75
2022/01/23 15:41:52;;;;;;;5.15;3.30;;;;;;;5.65;74.29;102406.34;8168772;35;20625;-75
2022/01/23 15:46:55;;;;;;;5.20;3.85;;;;;;;5.66;74.40;102411.66;8169116;35;20187;-77
2022/01/23 15:51:59;;;;;;;6.15;3.97;;;;;;;5.54;74.06;102414.69;8176061;35;20511;-76
2022/01/23 15:57:04;;;;;;;5.85;4.03;;;;;;;5.53;74.13;102409.38;8171057;35;20764;-75
2022/01/23 16:02:10;;;;;;;4.68;3.72;;;;;;;5.42;74.48;102407.00;8165327;35;20203;-75
2022/01/23 16:07:16;;;;;;;5.43;4.25;;;;;;;5.54;74.95;102412.00;8167194;35;20625;-75
2022/01/23 16:12:19;;;;;;;5.88;4.07;;;;;;;5.55;74.88;102407.56;8166408;35;20621;-75
2022/01/23 16:17:40;;;;;;;10.25;4.80;;;;;;;5.59;75.01;102412.72;8161691;35;20480;-75
2022/01/23 16:22:46;;;;;;;5.20;3.60;;;;;;;5.53;74.95;102417.38;8165878;35;20741;-75
2022/01/23 16:27:50;;;;;;;5.45;3.97;;;;;;;5.54;75.27;102421.78;8166029;35;20634;-75
2022/01/23 16:32:55;;;;;;;8.90;4.43;;;;;;;5.55;75.51;102429.75;8170990;35;20500;-75
2022/01/23 16:37:59;;;;;;;7.63;4.40;;;;;;;5.50;75.42;102427.19;8171863;35;20263;-75
2022/01/23 16:43:02;;;;;;;6.40;4.45;;;;;;;5.45;75.19;102431.78;8172100;35;20222;-75
2022/01/23 16:48:06;;;;;;;7.57;4.72;;;;;;;5.47;75.82;102442.41;8171130;35;20485;-75
2022/01/23 16:53:11;;;;;;;8.63;5.47;;;;;;;5.39;76.20;102436.41;8170674;35;20626;-74
2022/01/23 16:58:14;;;;;;;7.07;4.70;;;;;;;5.39;76.00;102431.09;8170346;35;20192;-76
2022/01/23 17:03:17;;;;;;;6.88;4.68;;;;;;;5.38;76.26;102427.56;8170666;35;20678;-76
2022/01/23 17:08:22;;;;;;;7.10;4.65;;;;;;;5.39;75.89;102433.75;8170789;35;20188;-74
2022/01/23 17:13:25;;;;;;;7.50;5.50;;;;;;;5.38;75.60;102437.34;8170182;35;20729;-76
2022/01/23 17:18:30;;;;;;;8.25;5.30;;;;;;;5.42;75.83;102434.53;8172845;35;20294;-74
2022/01/23 17:23:35;;;;;;;10.10;6.22;;;;;;;5.37;75.98;102439.09;8189096;35;20221;-75
2022/01/23 17:28:38;;;;;;;11.70;7.55;;;;;;;5.31;76.17;102439.28;8169951;35;20160;-75
2022/01/23 17:33:41;;;;;;;11.55;7.90;;;;;;;5.31;76.34;102441.06;8169331;35;20180;-76
2022/01/23 17:38:45;;;;;;;11.15;7.50;;;;;;;5.32;76.00;102442.81;8169709;35;20208;-75
2022/01/23 17:43:49;;;;;;;8.75;6.63;;;;;;;5.30;76.20;102447.31;8176237;35;20239;-76
2022/01/23 17:49:03;;;;;;;12.45;7.07;;;;;;;5.33;76.09;102457.91;8171704;35;20156;-76
2022/01/23 17:54:07;;;;;;;10.82;6.60;;;;;;;5.30;76.01;102450.88;8164275;35;20255;-73
2022/01/23 17:59:10;;;;;;;12.27;6.43;;;;;;;5.25;76.23;102456.31;8170001;35;20340;-74
2022/01/23 18:04:14;;;;;;;10.55;6.78;;;;;;;5.21;76.45;102453.75;8170174;35;20455;-74
2022/01/23 18:09:22;;;;;;;11.02;6.70;;;;;;;5.26;75.87;102462.50;8169863;35;20246;-76
2022/01/23 18:14:26;;;;;;;11.50;7.40;;;;;;;5.31;76.25;102455.25;8170313;35;20363;-76
2022/01/23 18:19:29;;;;;;;13.45;8.15;;;;;;;5.36;76.26;102458.69;8169617;35;20195;-75
2022/01/23 18:24:34;;;;;;;17.73;10.82;;;;;;;5.41;76.18;102469.25;8169538;35;20579;-75
2022/01/23 18:29:37;;;;;;;16.20;11.13;;;;;;;5.41;76.18;102464.78;8169248;35;20203;-75
2022/01/23 18:34:41;;;;;;;14.40;8.63;;;;;;;5.34;75.61;102455.19;8169201;35;20296;-75
2022/01/23 18:39:45;;;;;;;9.82;7.97;;;;;;;5.36;75.36;102460.47;8168814;35;20188;-74
2022/01/23 18:44:51;;;;;;;13.18;8.32;;;;;;;5.37;75.42;102459.56;8169438;35;20776;-75
2022/01/23 18:49:54;;;;;;;12.27;9.05;;;;;;;5.40;75.40;102464.81;8168602;35;20195;-75
2022/01/23 18:55:02;;;;;;;12.73;9.27;;;;;;;5.39;75.04;102455.94;8169971;35;20238;-74
2022/01/23 19:00:16;;;;;;;12.93;8.02;;;;;;;5.36;74.62;102453.34;8165218;35;20284;-75
2022/01/23 19:05:24;;;;;;;12.30;7.32;;;;;;;5.28;74.67;102455.34;8182290;35;20645;-75
2022/01/23 19:10:35;;;;;;;10.85;7.60;;;;;;;5.13;75.61;102455.72;8165096;35;21204;-75
2022/01/23 19:15:39;;;;;;;8.90;6.88;;;;;;;5.10;75.89;102447.81;8167713;35;20853;-75
2022/01/23 19:20:42;;;;;;;12.27;7.75;;;;;;;5.12;76.15;102457.53;8167370;35;20195;-75
2022/01/23 19:25:47;;;;;;;12.75;8.23;;;;;;;5.17;76.19;102449.44;8168489;35;20223;-75
2022/01/23 19:30:50;;;;;;;10.73;7.60;;;;;;;5.16;75.94;102451.22;8168053;35;20242;-75
2022/01/23 19:35:53;;;;;;;12.98;7.95;;;;;;;5.21;75.91;102445.75;8169603;35;20554;-75
2022/01/23 19:41:07;;;;;;;9.93;7.25;;;;;;;5.22;75.72;102445.72;8168177;35;20159;-75
2022/01/23 19:46:16;;;;;;;12.02;8.05;;;;;;;5.27;75.77;102451.81;8167678;35;21841;-74
2022/01/23 19:51:19;;;;;;;12.52;8.13;;;;;;;5.36;75.80;102453.34;8169966;35;20243;-75
2022/01/23 20:06:42;;;;;;;18.35;12.25;;;;;;;4.92;78.24;102443.81;8752936;32;20961;-76
2022/01/23 20:17:06;;;;;;;17.00;11.80;;;;;;;5.14;77.22;102438.84;8670063;33;21026;-76
2022/01/23 20:22:12;;;;;;;12.20;7.10;;;;;;;5.12;76.36;102436.22;8653845;33;20187;-75
2022/01/23 20:27:15;;;;;;;9.35;5.97;;;;;;;5.09;75.25;102436.28;8660833;33;20188;-75
2022/01/23 20:32:18;;;;;;;8.38;6.30;;;;;;;5.11;74.57;102428.28;8649865;33;20192;-76
2022/01/23 20:37:23;;;;;;;8.85;7.10;;;;;;;5.13;74.45;102427.31;8651144;33;20540;-74
2022/01/23 20:42:26;;;;;;;10.68;7.35;;;;;;;5.19;74.50;102420.97;8650231;33;20249;-75
2022/01/23 20:47:29;;;;;;;9.45;6.72;;;;;;;5.24;74.75;102424.38;8652640;33;20728;-75
2022/01/23 20:52:50;;;;;;;11.20;9.07;;;;;;;5.18;75.12;102417.38;8633833;33;20239;-74
2022/01/23 20:57:53;;;;;;;12.20;8.57;;;;;;;5.13;75.23;102424.66;8622624;33;20195;-76
2022/01/23 21:02:56;;;;;;;14.43;10.65;;;;;;;5.11;75.42;102433.59;8623637;33;20904;-75
2022/01/23 21:08:00;;;;;;;11.95;8.43;;;;;;;5.07;75.86;102427.44;8635484;33;20549;-75
2022/01/23 21:13:04;;;;;;;12.60;8.25;;;;;;;5.09;76.15;102425.63;8655968;33;20164;-75
2022/01/23 21:18:15;;;;;;;13.15;8.68;;;;;;;5.14;76.26;102431.72;8640994;33;20467;-75
2022/01/23 21:28:33;;;;;;;13.77;8.82;;;;;;;5.18;76.25;102424.50;8638824;33;20152;-75
2022/01/23 21:39:47;;;;;;;13.10;8.45;;;;;;;5.26;75.77;102419.88;8639062;33;20303;-75
2022/01/23 21:44:51;;;;;;;15.50;9.25;;;;;;;5.19;75.41;102421.81;8628620;33;20441;-75
2022/01/23 21:49:54;;;;;;;15.60;9.75;;;;;;;5.12;75.61;102406.91;8636321;33;20597;-75
2022/01/23 21:54:59;;;;;;;13.27;9.13;;;;;;;5.13;75.26;102411.34;8632086;33;20184;-75
2022/01/23 22:00:02;;;;;;;16.88;9.73;;;;;;;5.11;75.55;102401.63;8632440;33;20681;-75
2022/01/23 22:05:11;;;;;;;11.50;8.93;;;;;;;5.12;75.48;102400.69;8633250;33;20154;-75
2022/01/23 22:10:28;;;;;;;12.40;9.45;;;;;;;5.16;75.32;102397.06;8603708;33;20219;-75
2022/01/23 22:20:53;;;;;;;17.08;10.52;;;;;;;5.08;75.47;102394.59;8620510;33;20249;-75
2022/01/23 22:31:17;;;;;;;14.23;9.93;;;;;;;5.00;75.02;102391.25;8577442;33;20777;-75
2022/01/23 22:36:22;;;;;;;14.90;9.65;;;;;;;4.92;74.96;102395.88;8628192;33;20647;-74
2022/01/23 22:41:27;;;;;;;17.60;9.98;;;;;;;4.98;75.50;102393.91;8626616;33;20188;-75
2022/01/23 22:46:31;;;;;;;17.63;12.45;;;;;;;5.04;75.87;102403.56;8605729;33;20197;-76
2022/01/23 22:51:36;;;;;;;15.90;11.00;;;;;;;4.98;75.65;102401.03;8602280;33;20182;-74
2022/01/23 22:56:42;;;;;;;18.08;10.30;;;;;;;5.04;75.43;102400.91;8601349;33;20203;-73
2022/01/23 23:01:45;;;;;;;14.50;9.63;;;;;;;5.01;75.49;102396.53;8601714;33;20284;-74
2022/01/23 23:06:48;;;;;;;18.55;9.98;;;;;;;5.04;75.32;102395.56;8605592;33;20195;-73
2022/01/23 23:11:57;;;;;;;56.58;24.35;;;;;;;5.02;75.73;102397.41;8611885;33;20181;-74
2022/01/23 23:17:02;;;;;;;22.60;12.73;;;;;;;4.83;76.37;102387.19;8601944;33;21791;-73
2022/01/23 23:22:05;;;;;;;16.88;11.43;;;;;;;4.83;76.67;102381.88;8601289;33;20220;-76
2022/01/23 23:27:13;;;;;;;18.00;10.55;;;;;;;4.87;76.83;102393.31;8601202;33;20587;-75
2022/01/23 23:32:17;;;;;;;15.18;10.43;;;;;;;4.88;77.05;102397.72;8600296;33;20642;-74
2022/01/23 23:37:20;;;;;;;16.60;11.02;;;;;;;4.88;77.14;102396.84;8600068;33;20204;-75
2022/01/23 23:42:32;;;;;;;26.05;16.00;;;;;;;4.89;77.32;102398.59;8600049;33;20153;-74
2022/01/23 23:47:36;;;;;;;22.98;14.65;;;;;;;4.87;77.32;102387.97;8600713;33;20134;-75
2022/01/23 23:52:44;;;;;;;48.05;24.80;;;;;;;4.90;77.45;102392.34;8599233;33;20141;-74
2022/01/23 23:57:50;;;;;;;33.88;17.95;;;;;;;4.89;77.38;102388.81;8600303;33;20606;-75
